This is the latest recevied weather packets stored in our database for station/object KE8ZLU. If no packets are shown the sender has not sent any weather packets the latest 10 day(s).
| Time | Temp. | Humidity | Pressure | Rain* | Wind** | Luminosity | Snow |
|---|---|---|---|---|---|---|---|
| 1777676242 | 6.67° C | 66% | 1016.9 hPa | 0 mm | - | 29 W/m² | - |
| 1777675940 | 6.67° C | 65% | 1016.9 hPa | 0 mm | - | 45 W/m² | - |
| 1777675635 | 6.67° C | 65% | 1016.8 hPa | 0 mm | - | 50 W/m² | - |
| 1777675333 | 6.67° C | 67% | 1016.7 hPa | 0 mm | - | 76 W/m² | - |
| 1777675029 | 6.67° C | 66% | 1016.7 hPa | 0 mm | - | 85 W/m² | - |
| 1777674726 | 6.67° C | 66% | 1016.9 hPa | 0 mm | - | 99 W/m² | - |
| 1777674422 | 6.67° C | 65% | 1016.7 hPa | 0 mm | - | 100 W/m² | - |
| 1777674120 | 6.67° C | 66% | 1016.8 hPa | 0 mm | - | 95 W/m² | - |
| 1777673816 | 6.67° C | 68% | 1016.7 hPa | 0 mm | - | 93 W/m² | - |
| 1777673513 | 6.67° C | 66% | 1016.9 hPa | 0 mm | - | 73 W/m² | - |
| 1777673211 | 6.67° C | 67% | 1016.6 hPa | 0 mm | - | 76 W/m² | - |
| 1777672908 | 6.67° C | 65% | 1016.7 hPa | 0 mm | - | 58 W/m² | - |
| 1777672604 | 6.67° C | 67% | 1016.5 hPa | 0 mm | - | 64 W/m² | - |
| 1777672300 | 6.67° C | 66% | 1016.7 hPa | 0 mm | - | 42 W/m² | - |
| 1777671995 | 6.67° C | 65% | 1016.6 hPa | 0 mm | - | 39 W/m² | - |
| 1777671690 | 6.67° C | 66% | 1016.6 hPa | 0 mm | - | 48 W/m² | - |
| 1777671388 | 6.67° C | 66% | 1016.6 hPa | 0 mm | - | 42 W/m² | - |
| 1777671084 | 6.67° C | 65% | 1016.5 hPa | 0 mm | - | 49 W/m² | - |
| 1777670781 | 6.67° C | 64% | 1016.5 hPa | 0 mm | - | 62 W/m² | - |
| 1777670477 | 7.22° C | 63% | 1016.4 hPa | 0 mm | - | 84 W/m² | - |
| 1777670174 | 7.22° C | 63% | 1016.4 hPa | 0 mm | - | 98 W/m² | - |
| 1777669872 | 7.22° C | 64% | 1016.4 hPa | 0 mm | - | 126 W/m² | - |
| 1777669568 | 7.22° C | 64% | 1016 hPa | 0 mm | - | 148 W/m² | - |
| 1777669265 | 7.22° C | 62% | 1016.3 hPa | 0 mm | - | 140 W/m² | - |
| 1777668961 | 7.22° C | 65% | 1016.1 hPa | 0 mm | - | 187 W/m² | - |
* Rain latest hour (hover to see other rain measurements)
** Current wind speed in m/s (hover to see current wind gust speed)